Redland, Oregon
Current Conditions -  °F | °C
As of 2:53 AM on Sunday 23 Nov 2014 (Local Time) from KUAO Reporting Station
Broken Clouds Broken Clouds  
Wind Chill: 42°   Ceiling: 3700
Heat Index: 47°   Visibility: 10mi
Dew Point: 44°   Wind: 12mph
Humidity: 90%   Direction: 190°S
Pressure: 30.3"   Gusts: NA
Location:  45.3306°N, 122.529°W
Report Text: KUAO 231053Z AUTO 19010KT 10SM BKN037 BKN047 08/07 A3030 RMK AO2 SLP262 T00830067
Loading
Personal Weather Stations






























Interactive Weather Map New forecast layout! Learn more

10-Day Weather Forecast

Advertisements
Track Severe Weather on mobile